sensor_id;sensor_type;location;lat;lon;timestamp;temperature;humidity
11704;DHT22;5908;51.354;7.458;2024-01-15T00:01:12;3.90;99.90
11704;DHT22;5908;51.354;7.458;2024-01-15T00:03:38;4.00;99.90
11704;DHT22;5908;51.354;7.458;2024-01-15T00:06:07;4.00;99.90
11704;DHT22;5908;51.354;7.458;2024-01-15T00:08:34;4.10;99.90
11704;DHT22;5908;51.354;7.458;2024-01-15T00:11:01;4.10;99.90
11704;DHT22;5908;51.354;7.458;2024-01-15T00:13:28;4.10;99.90
11704;DHT22;5908;51.354;7.458;2024-01-15T00:15:54;4.10;99.90
11704;DHT22;5908;51.354;7.458;2024-01-15T00:18:21;4.10;99.90
11704;DHT22;5908;51.354;7.458;2024-01-15T00:20:48;4.10;99.90
11704;DHT22;5908;51.354;7.458;2024-01-15T00:23:16;4.00;99.90
11704;DHT22;5908;51.354;7.458;2024-01-15T00:25:43;4.00;99.90
11704;DHT22;5908;51.354;7.458;2024-01-15T00:28:09;4.00;99.90
11704;DHT22;5908;51.354;7.458;2024-01-15T00:30:36;4.20;99.90
11704;DHT22;5908;51.354;7.458;2024-01-15T00:33:03;4.20;99.90
11704;DHT22;5908;51.354;7.458;2024-01-15T00:35:30;4.10;99.90
11704;DHT22;5908;51.354;7.458;2024-01-15T00:37:57;4.00;99.90
11704;DHT22;5908;51.354;7.458;2024-01-15T00:40:25;4.00;99.90
11704;DHT22;5908;51.354;7.458;2024-01-15T00:42:52;4.10;99.90
11704;DHT22;5908;51.354;7.458;2024-01-15T00:45:18;4.10;99.90
11704;DHT22;5908;51.354;7.458;2024-01-15T00:47:45;4.20;99.90
11704;DHT22;5908;51.354;7.458;2024-01-15T00:50:12;4.30;99.90
11704;DHT22;5908;51.354;7.458;2024-01-15T00:52:39;4.40;99.90
11704;DHT22;5908;51.354;7.458;2024-01-15T00:55:06;4.40;99.90
11704;DHT22;5908;51.354;7.458;2024-01-15T00:57:34;4.40;99.90
11704;DHT22;5908;51.354;7.458;2024-01-15T01:00:01;4.30;99.90
11704;DHT22;5908;51.354;7.458;2024-01-15T01:02:28;4.40;99.90
11704;DHT22;5908;51.354;7.458;2024-01-15T01:04:55;4.40;99.90
11704;DHT22;5908;51.354;7.458;2024-01-15T01:07:22;4.50;99.90
11704;DHT22;5908;51.354;7.458;2024-01-15T01:09:48;4.50;99.90
11704;DHT22;5908;51.354;7.458;2024-01-15T01:12:16;4.50;99.90
11704;DHT22;5908;51.354;7.458;2024-01-15T01:14:45;4.40;99.90
11704;DHT22;5908;51.354;7.458;2024-01-15T01:17:11;4.50;99.90
11704;DHT22;5908;51.354;7.458;2024-01-15T01:19:38;4.60;99.90
11704;DHT22;5908;51.354;7.458;2024-01-15T01:22:05;4.60;99.90
11704;DHT22;5908;51.354;7.458;2024-01-15T01:24:31;4.60;99.90
11704;DHT22;5908;51.354;7.458;2024-01-15T01:26:58;4.70;99.90
11704;DHT22;5908;51.354;7.458;2024-01-15T01:29:25;4.80;99.90
11704;DHT22;5908;51.354;7.458;2024-01-15T01:31:53;4.70;99.90
11704;DHT22;5908;51.354;7.458;2024-01-15T01:34:22;4.70;99.90
11704;DHT22;5908;51.354;7.458;2024-01-15T01:36:49;4.80;99.90
11704;DHT22;5908;51.354;7.458;2024-01-15T01:39:15;4.80;99.90
11704;DHT22;5908;51.354;7.458;2024-01-15T01:41:42;4.60;99.90
11704;DHT22;5908;51.354;7.458;2024-01-15T01:44:09;4.60;99.90
11704;DHT22;5908;51.354;7.458;2024-01-15T01:46:36;4.80;99.90
11704;DHT22;5908;51.354;7.458;2024-01-15T01:49:07;4.80;99.90
11704;DHT22;5908;51.354;7.458;2024-01-15T01:51:35;4.70;99.90
11704;DHT22;5908;51.354;7.458;2024-01-15T01:54:03;4.70;99.90
11704;DHT22;5908;51.354;7.458;2024-01-15T01:56:30;4.60;99.90
11704;DHT22;5908;51.354;7.458;2024-01-15T01:58:57;4.70;99.90
11704;DHT22;5908;51.354;7.458;2024-01-15T02:01:24;4.80;99.90
11704;DHT22;5908;51.354;7.458;2024-01-15T02:03:52;4.80;99.90
11704;DHT22;5908;51.354;7.458;2024-01-15T02:06:20;4.90;99.90
11704;DHT22;5908;51.354;7.458;2024-01-15T02:08:46;4.90;99.90
11704;DHT22;5908;51.354;7.458;2024-01-15T02:11:13;4.90;99.90
11704;DHT22;5908;51.354;7.458;2024-01-15T02:13:40;4.90;99.90
11704;DHT22;5908;51.354;7.458;2024-01-15T02:16:07;5.00;99.90
11704;DHT22;5908;51.354;7.458;2024-01-15T02:18:40;5.00;99.90
11704;DHT22;5908;51.354;7.458;2024-01-15T02:21:07;4.90;99.90
11704;DHT22;5908;51.354;7.458;2024-01-15T02:23:35;4.70;99.90
11704;DHT22;5908;51.354;7.458;2024-01-15T02:26:02;4.80;99.90
11704;DHT22;5908;51.354;7.458;2024-01-15T02:28:29;4.90;99.90
11704;DHT22;5908;51.354;7.458;2024-01-15T02:30:56;4.90;99.90
11704;DHT22;5908;51.354;7.458;2024-01-15T02:33:23;4.80;99.90
11704;DHT22;5908;51.354;7.458;2024-01-15T02:35:50;4.80;99.90
11704;DHT22;5908;51.354;7.458;2024-01-15T02:38:17;4.80;99.90
11704;DHT22;5908;51.354;7.458;2024-01-15T02:40:45;4.80;99.90
11704;DHT22;5908;51.354;7.458;2024-01-15T02:43:12;4.90;99.90
11704;DHT22;5908;51.354;7.458;2024-01-15T02:45:40;4.70;99.90
11704;DHT22;5908;51.354;7.458;2024-01-15T02:48:06;4.70;99.90
11704;DHT22;5908;51.354;7.458;2024-01-15T02:50:33;4.80;99.90
11704;DHT22;5908;51.354;7.458;2024-01-15T02:53:00;4.90;99.90
11704;DHT22;5908;51.354;7.458;2024-01-15T02:55:26;4.80;99.90
11704;DHT22;5908;51.354;7.458;2024-01-15T02:57:56;4.70;99.90
11704;DHT22;5908;51.354;7.458;2024-01-15T03:00:23;4.70;99.90
11704;DHT22;5908;51.354;7.458;2024-01-15T03:02:51;4.80;99.90
11704;DHT22;5908;51.354;7.458;2024-01-15T03:05:17;4.90;99.90
11704;DHT22;5908;51.354;7.458;2024-01-15T03:07:45;5.00;99.90
11704;DHT22;5908;51.354;7.458;2024-01-15T03:10:12;5.10;99.90
11704;DHT22;5908;51.354;7.458;2024-01-15T03:12:39;5.10;99.90
11704;DHT22;5908;51.354;7.458;2024-01-15T03:15:07;5.10;99.90
11704;DHT22;5908;51.354;7.458;2024-01-15T03:17:34;5.10;99.90
11704;DHT22;5908;51.354;7.458;2024-01-15T03:20:01;5.00;99.90
11704;DHT22;5908;51.354;7.458;2024-01-15T03:22:28;4.90;99.90
11704;DHT22;5908;51.354;7.458;2024-01-15T03:24:55;4.90;99.90
11704;DHT22;5908;51.354;7.458;2024-01-15T03:27:22;5.00;99.90
11704;DHT22;5908;51.354;7.458;2024-01-15T03:29:49;5.00;99.90
11704;DHT22;5908;51.354;7.458;2024-01-15T03:32:17;5.10;99.90
11704;DHT22;5908;51.354;7.458;2024-01-15T03:34:45;5.00;99.90
11704;DHT22;5908;51.354;7.458;2024-01-15T03:37:13;4.90;99.90
11704;DHT22;5908;51.354;7.458;2024-01-15T03:39:39;5.00;99.90
11704;DHT22;5908;51.354;7.458;2024-01-15T03:42:06;5.00;99.90
11704;DHT22;5908;51.354;7.458;2024-01-15T03:44:33;5.00;99.90
11704;DHT22;5908;51.354;7.458;2024-01-15T03:47:00;5.20;99.90
11704;DHT22;5908;51.354;7.458;2024-01-15T03:49:28;5.20;99.90
11704;DHT22;5908;51.354;7.458;2024-01-15T03:51:55;5.10;99.90
11704;DHT22;5908;51.354;7.458;2024-01-15T03:54:21;5.10;99.90
11704;DHT22;5908;51.354;7.458;2024-01-15T03:56:48;5.10;99.90
11704;DHT22;5908;51.354;7.458;2024-01-15T03:59:15;5.00;99.90
11704;DHT22;5908;51.354;7.458;2024-01-15T04:01:48;5.00;99.90
11704;DHT22;5908;51.354;7.458;2024-01-15T04:04:15;5.00;99.90
11704;DHT22;5908;51.354;7.458;2024-01-15T04:06:43;5.10;99.90
11704;DHT22;5908;51.354;7.458;2024-01-15T04:09:09;5.20;99.90
11704;DHT22;5908;51.354;7.458;2024-01-15T04:11:36;5.20;99.90
11704;DHT22;5908;51.354;7.458;2024-01-15T04:14:03;5.30;99.90
11704;DHT22;5908;51.354;7.458;2024-01-15T04:16:30;5.40;99.90
11704;DHT22;5908;51.354;7.458;2024-01-15T04:18:56;5.30;99.90
11704;DHT22;5908;51.354;7.458;2024-01-15T04:21:23;5.30;99.90
11704;DHT22;5908;51.354;7.458;2024-01-15T04:23:51;5.20;99.90
11704;DHT22;5908;51.354;7.458;2024-01-15T04:26:18;5.20;99.90
11704;DHT22;5908;51.354;7.458;2024-01-15T04:28:45;5.20;99.90
11704;DHT22;5908;51.354;7.458;2024-01-15T04:31:21;5.20;99.90
11704;DHT22;5908;51.354;7.458;2024-01-15T04:33:47;5.30;99.90
11704;DHT22;5908;51.354;7.458;2024-01-15T04:36:14;5.30;99.90
11704;DHT22;5908;51.354;7.458;2024-01-15T04:38:41;5.20;99.90
11704;DHT22;5908;51.354;7.458;2024-01-15T04:41:11;5.20;99.90
11704;DHT22;5908;51.354;7.458;2024-01-15T04:43:38;5.20;99.90
11704;DHT22;5908;51.354;7.458;2024-01-15T04:46:05;5.20;99.90
11704;DHT22;5908;51.354;7.458;2024-01-15T04:48:32;5.20;99.90
11704;DHT22;5908;51.354;7.458;2024-01-15T04:50:59;5.10;99.90
11704;DHT22;5908;51.354;7.458;2024-01-15T04:53:26;5.30;99.90
11704;DHT22;5908;51.354;7.458;2024-01-15T04:55:53;5.30;99.90
11704;DHT22;5908;51.354;7.458;2024-01-15T04:58:21;5.40;99.90
11704;DHT22;5908;51.354;7.458;2024-01-15T05:00:50;5.50;99.90
11704;DHT22;5908;51.354;7.458;2024-01-15T05:03:17;5.50;99.90
11704;DHT22;5908;51.354;7.458;2024-01-15T05:05:44;5.60;99.90
11704;DHT22;5908;51.354;7.458;2024-01-15T05:08:11;5.60;99.90
11704;DHT22;5908;51.354;7.458;2024-01-15T05:10:38;5.60;99.90
11704;DHT22;5908;51.354;7.458;2024-01-15T05:13:04;5.60;99.90
11704;DHT22;5908;51.354;7.458;2024-01-15T05:15:32;5.60;99.90
11704;DHT22;5908;51.354;7.458;2024-01-15T05:17:59;5.60;99.90
11704;DHT22;5908;51.354;7.458;2024-01-15T05:20:26;5.40;99.90
11704;DHT22;5908;51.354;7.458;2024-01-15T05:22:52;5.40;99.90
11704;DHT22;5908;51.354;7.458;2024-01-15T05:25:19;5.30;99.90
11704;DHT22;5908;51.354;7.458;2024-01-15T05:27:46;5.20;99.90
11704;DHT22;5908;51.354;7.458;2024-01-15T05:30:13;5.20;99.90
11704;DHT22;5908;51.354;7.458;2024-01-15T05:32:41;5.20;99.90
11704;DHT22;5908;51.354;7.458;2024-01-15T05:35:08;5.30;99.90
11704;DHT22;5908;51.354;7.458;2024-01-15T05:37:35;5.30;99.90
11704;DHT22;5908;51.354;7.458;2024-01-15T05:40:02;5.30;99.90
11704;DHT22;5908;51.354;7.458;2024-01-15T05:42:30;5.10;99.90
11704;DHT22;5908;51.354;7.458;2024-01-15T05:44:57;5.30;99.90
11704;DHT22;5908;51.354;7.458;2024-01-15T05:47:27;5.20;99.90
11704;DHT22;5908;51.354;7.458;2024-01-15T05:49:56;5.20;99.90
11704;DHT22;5908;51.354;7.458;2024-01-15T05:52:22;5.20;99.90
11704;DHT22;5908;51.354;7.458;2024-01-15T05:54:49;5.10;99.90
11704;DHT22;5908;51.354;7.458;2024-01-15T05:57:16;5.20;99.90
11704;DHT22;5908;51.354;7.458;2024-01-15T05:59:44;5.20;99.90
11704;DHT22;5908;51.354;7.458;2024-01-15T06:02:11;5.20;99.90
11704;DHT22;5908;51.354;7.458;2024-01-15T06:04:38;5.30;99.90
11704;DHT22;5908;51.354;7.458;2024-01-15T06:07:06;5.30;99.90
11704;DHT22;5908;51.354;7.458;2024-01-15T06:09:33;5.20;99.90
11704;DHT22;5908;51.354;7.458;2024-01-15T06:11:59;5.20;99.90
11704;DHT22;5908;51.354;7.458;2024-01-15T06:14:26;5.30;99.90
11704;DHT22;5908;51.354;7.458;2024-01-15T06:16:53;5.20;99.90
11704;DHT22;5908;51.354;7.458;2024-01-15T06:19:19;5.30;99.90
11704;DHT22;5908;51.354;7.458;2024-01-15T06:21:46;5.30;99.90
11704;DHT22;5908;51.354;7.458;2024-01-15T06:24:14;5.30;99.90
11704;DHT22;5908;51.354;7.458;2024-01-15T06:26:43;5.30;99.90
11704;DHT22;5908;51.354;7.458;2024-01-15T06:29:10;5.30;99.90
11704;DHT22;5908;51.354;7.458;2024-01-15T06:31:36;5.30;99.90
11704;DHT22;5908;51.354;7.458;2024-01-15T06:34:03;5.20;99.90
11704;DHT22;5908;51.354;7.458;2024-01-15T06:36:30;5.00;99.90
11704;DHT22;5908;51.354;7.458;2024-01-15T06:38:57;5.00;99.90
11704;DHT22;5908;51.354;7.458;2024-01-15T06:41:25;4.90;99.90
11704;DHT22;5908;51.354;7.458;2024-01-15T06:43:51;4.90;99.90
11704;DHT22;5908;51.354;7.458;2024-01-15T06:46:20;4.90;99.90
11704;DHT22;5908;51.354;7.458;2024-01-15T06:48:47;5.10;99.90
11704;DHT22;5908;51.354;7.458;2024-01-15T06:51:15;5.00;99.90
11704;DHT22;5908;51.354;7.458;2024-01-15T06:53:41;5.00;99.90
11704;DHT22;5908;51.354;7.458;2024-01-15T06:56:08;5.00;99.90
11704;DHT22;5908;51.354;7.458;2024-01-15T06:58:36;5.00;99.90
11704;DHT22;5908;51.354;7.458;2024-01-15T07:01:03;5.00;99.90
11704;DHT22;5908;51.354;7.458;2024-01-15T07:03:31;5.00;99.90
11704;DHT22;5908;51.354;7.458;2024-01-15T07:05:58;5.10;99.90
11704;DHT22;5908;51.354;7.458;2024-01-15T07:08:24;5.00;99.90
11704;DHT22;5908;51.354;7.458;2024-01-15T07:10:51;5.00;99.90
11704;DHT22;5908;51.354;7.458;2024-01-15T07:13:18;5.00;99.90
11704;DHT22;5908;51.354;7.458;2024-01-15T07:15:46;5.10;99.90
11704;DHT22;5908;51.354;7.458;2024-01-15T07:18:13;5.10;99.90
11704;DHT22;5908;51.354;7.458;2024-01-15T07:20:40;4.90;99.90
11704;DHT22;5908;51.354;7.458;2024-01-15T07:23:06;4.80;99.90
11704;DHT22;5908;51.354;7.458;2024-01-15T07:25:33;4.70;99.90
11704;DHT22;5908;51.354;7.458;2024-01-15T07:28:00;4.60;99.90
11704;DHT22;5908;51.354;7.458;2024-01-15T07:30:27;4.50;99.90
11704;DHT22;5908;51.354;7.458;2024-01-15T07:32:55;4.50;99.90
11704;DHT22;5908;51.354;7.458;2024-01-15T07:35:22;4.60;99.90
11704;DHT22;5908;51.354;7.458;2024-01-15T07:37:48;4.50;99.90
11704;DHT22;5908;51.354;7.458;2024-01-15T07:40:15;4.50;99.90
11704;DHT22;5908;51.354;7.458;2024-01-15T07:42:42;4.50;99.90
11704;DHT22;5908;51.354;7.458;2024-01-15T07:45:10;4.50;99.90
11704;DHT22;5908;51.354;7.458;2024-01-15T07:47:36;4.60;99.90
11704;DHT22;5908;51.354;7.458;2024-01-15T07:50:05;4.60;99.90
11704;DHT22;5908;51.354;7.458;2024-01-15T07:52:32;4.70;99.90
11704;DHT22;5908;51.354;7.458;2024-01-15T07:54:59;4.70;99.90
11704;DHT22;5908;51.354;7.458;2024-01-15T07:57:26;4.90;99.90
11704;DHT22;5908;51.354;7.458;2024-01-15T07:59:53;4.90;99.90
11704;DHT22;5908;51.354;7.458;2024-01-15T08:02:20;4.80;99.90
11704;DHT22;5908;51.354;7.458;2024-01-15T08:04:47;4.80;99.90
11704;DHT22;5908;51.354;7.458;2024-01-15T08:07:15;4.70;99.90
11704;DHT22;5908;51.354;7.458;2024-01-15T08:09:43;4.70;99.90
11704;DHT22;5908;51.354;7.458;2024-01-15T08:12:10;4.70;99.90
11704;DHT22;5908;51.354;7.458;2024-01-15T08:14:38;4.80;99.90
11704;DHT22;5908;51.354;7.458;2024-01-15T08:17:05;4.80;99.90
11704;DHT22;5908;51.354;7.458;2024-01-15T08:19:31;4.80;99.90
11704;DHT22;5908;51.354;7.458;2024-01-15T08:21:58;4.70;99.90
11704;DHT22;5908;51.354;7.458;2024-01-15T08:24:26;4.70;99.90
11704;DHT22;5908;51.354;7.458;2024-01-15T08:26:54;4.70;99.90
11704;DHT22;5908;51.354;7.458;2024-01-15T08:29:21;4.80;99.90
11704;DHT22;5908;51.354;7.458;2024-01-15T08:31:50;4.90;99.90
11704;DHT22;5908;51.354;7.458;2024-01-15T08:34:17;4.80;99.90
11704;DHT22;5908;51.354;7.458;2024-01-15T08:36:43;4.80;99.90
11704;DHT22;5908;51.354;7.458;2024-01-15T08:39:10;4.70;99.90
11704;DHT22;5908;51.354;7.458;2024-01-15T08:41:38;4.80;99.90
11704;DHT22;5908;51.354;7.458;2024-01-15T08:44:05;4.90;99.90
11704;DHT22;5908;51.354;7.458;2024-01-15T08:46:31;4.70;99.90
11704;DHT22;5908;51.354;7.458;2024-01-15T08:48:58;4.80;99.90
11704;DHT22;5908;51.354;7.458;2024-01-15T08:51:25;4.80;99.90
11704;DHT22;5908;51.354;7.458;2024-01-15T08:53:52;4.70;99.90
11704;DHT22;5908;51.354;7.458;2024-01-15T08:56:18;4.60;99.90
11704;DHT22;5908;51.354;7.458;2024-01-15T08:58:46;4.50;99.90
11704;DHT22;5908;51.354;7.458;2024-01-15T09:01:13;4.60;99.90
11704;DHT22;5908;51.354;7.458;2024-01-15T09:03:40;4.60;99.90
11704;DHT22;5908;51.354;7.458;2024-01-15T09:06:07;4.70;99.90
11704;DHT22;5908;51.354;7.458;2024-01-15T09:08:34;4.70;99.90
11704;DHT22;5908;51.354;7.458;2024-01-15T09:11:01;4.80;99.90
11704;DHT22;5908;51.354;7.458;2024-01-15T09:13:29;4.90;99.90
11704;DHT22;5908;51.354;7.458;2024-01-15T09:15:58;4.90;99.90
11704;DHT22;5908;51.354;7.458;2024-01-15T09:18:25;4.90;99.90
11704;DHT22;5908;51.354;7.458;2024-01-15T09:20:51;4.90;99.90
11704;DHT22;5908;51.354;7.458;2024-01-15T09:23:18;4.70;99.90
11704;DHT22;5908;51.354;7.458;2024-01-15T09:25:45;4.70;99.90
11704;DHT22;5908;51.354;7.458;2024-01-15T09:28:13;4.80;99.90
11704;DHT22;5908;51.354;7.458;2024-01-15T09:30:40;4.80;99.90
11704;DHT22;5908;51.354;7.458;2024-01-15T09:33:08;4.70;99.90
11704;DHT22;5908;51.354;7.458;2024-01-15T09:35:34;4.60;99.90
11704;DHT22;5908;51.354;7.458;2024-01-15T09:38:02;4.60;99.90
11704;DHT22;5908;51.354;7.458;2024-01-15T09:40:31;4.60;99.90
11704;DHT22;5908;51.354;7.458;2024-01-15T09:42:59;4.60;99.90
11704;DHT22;5908;51.354;7.458;2024-01-15T09:46:52;4.80;99.90
11704;DHT22;5908;51.354;7.458;2024-01-15T09:49:19;4.90;99.90
11704;DHT22;5908;51.354;7.458;2024-01-15T09:51:47;4.90;99.90
11704;DHT22;5908;51.354;7.458;2024-01-15T09:54:14;4.90;99.90
11704;DHT22;5908;51.354;7.458;2024-01-15T09:56:45;5.00;99.90
11704;DHT22;5908;51.354;7.458;2024-01-15T09:59:14;5.00;99.90
11704;DHT22;5908;51.354;7.458;2024-01-15T10:01:43;4.90;99.90
11704;DHT22;5908;51.354;7.458;2024-01-15T10:04:11;4.80;99.90
11704;DHT22;5908;51.354;7.458;2024-01-15T10:06:39;4.70;99.90
11704;DHT22;5908;51.354;7.458;2024-01-15T10:09:08;4.70;99.90
11704;DHT22;5908;51.354;7.458;2024-01-15T10:11:37;4.70;99.90
11704;DHT22;5908;51.354;7.458;2024-01-15T10:14:04;4.60;99.90
11704;DHT22;5908;51.354;7.458;2024-01-15T10:16:31;4.60;99.90
11704;DHT22;5908;51.354;7.458;2024-01-15T10:18:58;4.50;99.90
11704;DHT22;5908;51.354;7.458;2024-01-15T10:21:26;4.50;99.90
11704;DHT22;5908;51.354;7.458;2024-01-15T10:23:53;4.60;99.90
11704;DHT22;5908;51.354;7.458;2024-01-15T10:26:24;4.80;99.90
11704;DHT22;5908;51.354;7.458;2024-01-15T10:28:51;5.10;99.90
11704;DHT22;5908;51.354;7.458;2024-01-15T10:31:18;5.20;99.90
11704;DHT22;5908;51.354;7.458;2024-01-15T10:33:47;5.20;99.90
11704;DHT22;5908;51.354;7.458;2024-01-15T10:36:14;5.20;99.90
11704;DHT22;5908;51.354;7.458;2024-01-15T10:38:43;5.30;99.90
11704;DHT22;5908;51.354;7.458;2024-01-15T10:41:10;5.30;99.90
11704;DHT22;5908;51.354;7.458;2024-01-15T10:43:37;5.40;99.90
11704;DHT22;5908;51.354;7.458;2024-01-15T10:46:07;5.60;99.90
11704;DHT22;5908;51.354;7.458;2024-01-15T10:48:34;5.60;99.90
11704;DHT22;5908;51.354;7.458;2024-01-15T10:51:01;5.80;99.90
11704;DHT22;5908;51.354;7.458;2024-01-15T10:53:36;5.80;99.90
11704;DHT22;5908;51.354;7.458;2024-01-15T10:56:06;5.70;99.90
11704;DHT22;5908;51.354;7.458;2024-01-15T10:58:34;5.60;99.90
11704;DHT22;5908;51.354;7.458;2024-01-15T11:01:01;5.60;99.90
11704;DHT22;5908;51.354;7.458;2024-01-15T11:03:28;5.60;99.90
11704;DHT22;5908;51.354;7.458;2024-01-15T11:05:55;5.60;99.90
11704;DHT22;5908;51.354;7.458;2024-01-15T11:08:24;5.60;99.90
11704;DHT22;5908;51.354;7.458;2024-01-15T11:10:52;5.70;99.90
11704;DHT22;5908;51.354;7.458;2024-01-15T11:13:22;5.80;99.90
11704;DHT22;5908;51.354;7.458;2024-01-15T11:15:56;5.70;99.90
11704;DHT22;5908;51.354;7.458;2024-01-15T11:18:23;5.70;99.90
11704;DHT22;5908;51.354;7.458;2024-01-15T11:21:20;5.70;99.90
11704;DHT22;5908;51.354;7.458;2024-01-15T11:23:50;5.60;99.90
11704;DHT22;5908;51.354;7.458;2024-01-15T11:26:36;5.50;99.90
11704;DHT22;5908;51.354;7.458;2024-01-15T11:29:06;5.60;99.90
11704;DHT22;5908;51.354;7.458;2024-01-15T11:32:03;5.50;99.90
11704;DHT22;5908;51.354;7.458;2024-01-15T11:34:52;5.70;99.90
11704;DHT22;5908;51.354;7.458;2024-01-15T11:37:19;6.00;99.90
11704;DHT22;5908;51.354;7.458;2024-01-15T11:39:47;6.10;99.90
11704;DHT22;5908;51.354;7.458;2024-01-15T11:42:14;6.10;99.90
11704;DHT22;5908;51.354;7.458;2024-01-15T11:44:42;6.00;99.90
11704;DHT22;5908;51.354;7.458;2024-01-15T11:47:11;6.10;99.90
11704;DHT22;5908;51.354;7.458;2024-01-15T11:50:02;6.00;99.90
11704;DHT22;5908;51.354;7.458;2024-01-15T11:52:34;5.90;99.90
11704;DHT22;5908;51.354;7.458;2024-01-15T11:55:07;5.80;99.90
11704;DHT22;5908;51.354;7.458;2024-01-15T11:57:41;5.90;99.90
11704;DHT22;5908;51.354;7.458;2024-01-15T12:00:11;5.90;99.90
11704;DHT22;5908;51.354;7.458;2024-01-15T12:02:39;6.00;99.90
11704;DHT22;5908;51.354;7.458;2024-01-15T12:05:08;6.10;99.90
11704;DHT22;5908;51.354;7.458;2024-01-15T12:07:35;6.00;99.90
11704;DHT22;5908;51.354;7.458;2024-01-15T12:10:02;6.00;99.90
11704;DHT22;5908;51.354;7.458;2024-01-15T12:12:37;5.80;99.90
11704;DHT22;5908;51.354;7.458;2024-01-15T12:15:07;5.80;99.90
11704;DHT22;5908;51.354;7.458;2024-01-15T12:17:35;5.80;99.90
11704;DHT22;5908;51.354;7.458;2024-01-15T12:20:02;5.70;99.90
11704;DHT22;5908;51.354;7.458;2024-01-15T12:22:29;5.50;99.90
11704;DHT22;5908;51.354;7.458;2024-01-15T12:24:55;5.70;99.90
11704;DHT22;5908;51.354;7.458;2024-01-15T12:27:23;5.60;99.90
11704;DHT22;5908;51.354;7.458;2024-01-15T12:29:50;5.60;99.90
11704;DHT22;5908;51.354;7.458;2024-01-15T12:32:18;5.50;99.90
11704;DHT22;5908;51.354;7.458;2024-01-15T12:34:49;5.50;99.90
11704;DHT22;5908;51.354;7.458;2024-01-15T12:37:18;5.50;99.90
11704;DHT22;5908;51.354;7.458;2024-01-15T12:39:44;5.40;99.90
11704;DHT22;5908;51.354;7.458;2024-01-15T12:42:11;5.40;99.90
11704;DHT22;5908;51.354;7.458;2024-01-15T12:44:39;5.40;99.90
11704;DHT22;5908;51.354;7.458;2024-01-15T12:47:06;5.40;99.90
11704;DHT22;5908;51.354;7.458;2024-01-15T12:49:33;5.50;99.90
11704;DHT22;5908;51.354;7.458;2024-01-15T12:52:03;5.50;99.90
11704;DHT22;5908;51.354;7.458;2024-01-15T12:54:30;5.50;99.90
11704;DHT22;5908;51.354;7.458;2024-01-15T12:56:57;5.60;99.90
11704;DHT22;5908;51.354;7.458;2024-01-15T12:59:24;5.90;99.90
11704;DHT22;5908;51.354;7.458;2024-01-15T13:01:51;5.80;99.90
11704;DHT22;5908;51.354;7.458;2024-01-15T13:04:21;6.00;99.90
11704;DHT22;5908;51.354;7.458;2024-01-15T13:06:49;6.00;99.90
11704;DHT22;5908;51.354;7.458;2024-01-15T13:09:17;6.00;99.90
11704;DHT22;5908;51.354;7.458;2024-01-15T13:11:44;6.10;99.90
11704;DHT22;5908;51.354;7.458;2024-01-15T13:14:12;6.00;99.90
11704;DHT22;5908;51.354;7.458;2024-01-15T13:16:40;5.60;99.90
11704;DHT22;5908;51.354;7.458;2024-01-15T13:19:07;5.40;99.90
11704;DHT22;5908;51.354;7.458;2024-01-15T13:21:34;5.50;99.90
11704;DHT22;5908;51.354;7.458;2024-01-15T13:24:01;5.40;99.90
11704;DHT22;5908;51.354;7.458;2024-01-15T13:26:32;5.20;99.90
11704;DHT22;5908;51.354;7.458;2024-01-15T13:28:59;5.20;99.90
11704;DHT22;5908;51.354;7.458;2024-01-15T13:31:26;5.10;99.90
11704;DHT22;5908;51.354;7.458;2024-01-15T13:33:53;5.10;99.90
11704;DHT22;5908;51.354;7.458;2024-01-15T13:36:20;5.10;99.90
11704;DHT22;5908;51.354;7.458;2024-01-15T13:38:48;5.20;99.90
11704;DHT22;5908;51.354;7.458;2024-01-15T13:41:15;5.30;99.90
11704;DHT22;5908;51.354;7.458;2024-01-15T13:43:45;5.30;99.90
11704;DHT22;5908;51.354;7.458;2024-01-15T13:46:12;5.50;99.90
11704;DHT22;5908;51.354;7.458;2024-01-15T13:48:38;5.40;99.90
11704;DHT22;5908;51.354;7.458;2024-01-15T13:51:05;5.50;99.90
11704;DHT22;5908;51.354;7.458;2024-01-15T13:53:32;5.50;99.90
11704;DHT22;5908;51.354;7.458;2024-01-15T13:55:59;5.40;99.90
11704;DHT22;5908;51.354;7.458;2024-01-15T13:58:26;5.40;99.90
11704;DHT22;5908;51.354;7.458;2024-01-15T14:00:54;5.50;99.90
11704;DHT22;5908;51.354;7.458;2024-01-15T14:03:21;5.60;99.90
11704;DHT22;5908;51.354;7.458;2024-01-15T14:05:47;5.60;99.90
11704;DHT22;5908;51.354;7.458;2024-01-15T14:08:14;5.60;99.90
11704;DHT22;5908;51.354;7.458;2024-01-15T14:10:41;5.70;99.90
11704;DHT22;5908;51.354;7.458;2024-01-15T14:13:08;5.50;99.90
11704;DHT22;5908;51.354;7.458;2024-01-15T14:15:35;5.50;99.90
11704;DHT22;5908;51.354;7.458;2024-01-15T14:18:04;5.40;99.90
11704;DHT22;5908;51.354;7.458;2024-01-15T14:20:31;5.50;99.90
11704;DHT22;5908;51.354;7.458;2024-01-15T14:22:58;5.60;99.90
11704;DHT22;5908;51.354;7.458;2024-01-15T14:25:25;5.90;99.90
11704;DHT22;5908;51.354;7.458;2024-01-15T14:27:51;6.20;99.90
11704;DHT22;5908;51.354;7.458;2024-01-15T14:30:18;6.30;99.90
11704;DHT22;5908;51.354;7.458;2024-01-15T14:32:45;6.30;99.90
11704;DHT22;5908;51.354;7.458;2024-01-15T14:35:13;6.20;99.90
11704;DHT22;5908;51.354;7.458;2024-01-15T14:37:40;6.10;99.90
11704;DHT22;5908;51.354;7.458;2024-01-15T14:40:07;5.90;99.90
11704;DHT22;5908;51.354;7.458;2024-01-15T14:42:35;5.80;99.90
11704;DHT22;5908;51.354;7.458;2024-01-15T14:45:02;5.60;99.90
11704;DHT22;5908;51.354;7.458;2024-01-15T14:47:30;5.60;99.90
11704;DHT22;5908;51.354;7.458;2024-01-15T14:49:57;5.50;99.90
11704;DHT22;5908;51.354;7.458;2024-01-15T14:52:25;5.30;99.90
11704;DHT22;5908;51.354;7.458;2024-01-15T14:54:52;5.30;99.90
11704;DHT22;5908;51.354;7.458;2024-01-15T14:57:19;5.30;99.90
11704;DHT22;5908;51.354;7.458;2024-01-15T14:59:46;5.30;99.90
11704;DHT22;5908;51.354;7.458;2024-01-15T15:02:12;5.20;99.90
11704;DHT22;5908;51.354;7.458;2024-01-15T15:04:40;5.00;99.90
11704;DHT22;5908;51.354;7.458;2024-01-15T15:07:07;5.00;99.90
11704;DHT22;5908;51.354;7.458;2024-01-15T15:09:37;5.10;99.90
11704;DHT22;5908;51.354;7.458;2024-01-15T15:12:04;5.10;99.90
11704;DHT22;5908;51.354;7.458;2024-01-15T15:14:31;5.10;99.90
11704;DHT22;5908;51.354;7.458;2024-01-15T15:17:03;5.10;99.90
11704;DHT22;5908;51.354;7.458;2024-01-15T15:19:30;5.00;99.90
11704;DHT22;5908;51.354;7.458;2024-01-15T15:21:57;5.00;99.90
11704;DHT22;5908;51.354;7.458;2024-01-15T15:24:24;5.00;99.90
11704;DHT22;5908;51.354;7.458;2024-01-15T15:26:52;4.90;99.90
11704;DHT22;5908;51.354;7.458;2024-01-15T15:29:18;4.90;99.90
11704;DHT22;5908;51.354;7.458;2024-01-15T15:31:45;4.90;99.90
11704;DHT22;5908;51.354;7.458;2024-01-15T15:34:14;4.90;99.90
11704;DHT22;5908;51.354;7.458;2024-01-15T15:36:41;4.90;99.90
11704;DHT22;5908;51.354;7.458;2024-01-15T15:39:07;4.80;99.90
11704;DHT22;5908;51.354;7.458;2024-01-15T15:41:34;4.80;99.90
11704;DHT22;5908;51.354;7.458;2024-01-15T15:44:03;4.90;99.90
11704;DHT22;5908;51.354;7.458;2024-01-15T15:46:30;5.00;99.90
11704;DHT22;5908;51.354;7.458;2024-01-15T15:48:57;4.90;99.90
11704;DHT22;5908;51.354;7.458;2024-01-15T15:51:24;4.90;99.90
11704;DHT22;5908;51.354;7.458;2024-01-15T15:53:50;4.80;99.90
11704;DHT22;5908;51.354;7.458;2024-01-15T15:56:18;4.70;99.90
11704;DHT22;5908;51.354;7.458;2024-01-15T15:58:44;4.50;99.90
11704;DHT22;5908;51.354;7.458;2024-01-15T16:01:12;4.40;99.90
11704;DHT22;5908;51.354;7.458;2024-01-15T16:03:39;4.30;99.90
11704;DHT22;5908;51.354;7.458;2024-01-15T16:06:06;4.20;99.90